Terminal Aerodrome Forecast
Issued by NWS Cleveland, OH

Home | Current Version | Previous Version | Graphics & Text | Print | Product List | Glossary On
Versions: 1 2 3 4 5 6 7 8 9 10 11 12 13 14 15 16 17 18 19 20
000
FTUS41 KCLE 211034 AAB
TAFMFD
TAF AMD
KMFD 211034Z 2111/2206 32005KT 3SM BR OVC002
      TEMPO 2111/2113 32004KT 1/2SM FG
     FM211300 31005KT 5SM BR OVC005
      TEMPO 2113/2115 6SM BR SCT007
     FM211500 30008KT P6SM SCT015
     FM220400 33010KT P6SM BKN035=

USA.gov is the U.S. government's official web portal to all federal, state and local government web resources and services.